createdAt,value
2019-03-26T00:00:32.099Z,7.00
2019-03-26T00:01:32.059Z,7.40
2019-03-26T00:02:32.034Z,7.80
2019-03-26T00:03:32.037Z,7.60
2019-03-26T00:04:32.015Z,7.30
2019-03-26T00:05:32.036Z,7.20
2019-03-26T00:06:31.996Z,7.80
2019-03-26T00:07:31.988Z,7.30
2019-03-26T00:08:31.977Z,7.50
2019-03-26T00:09:31.963Z,7.60
2019-03-26T00:10:31.978Z,8.10
2019-03-26T00:11:31.950Z,7.70
2019-03-26T00:12:31.929Z,8.10
2019-03-26T00:13:39.842Z,8.20
2019-03-26T00:14:40.861Z,8.80
2019-03-26T00:15:31.917Z,9.00
2019-03-26T00:16:40.870Z,9.40
2019-03-26T00:17:31.873Z,8.70
2019-03-26T00:18:31.875Z,9.00
2019-03-26T00:19:31.854Z,8.80
2019-03-26T00:20:31.858Z,9.20
2019-03-26T00:21:31.831Z,9.60
2019-03-26T00:22:31.824Z,9.30
2019-03-26T00:23:31.814Z,9.10
2019-03-26T00:24:31.808Z,9.00
2019-03-26T00:25:31.835Z,9.20
2019-03-26T00:26:31.774Z,9.50
2019-03-26T00:27:31.765Z,9.50
2019-03-26T00:28:31.754Z,9.50
2019-03-26T00:29:31.747Z,9.90
2019-03-26T00:30:31.766Z,9.40
2019-03-26T00:31:31.719Z,9.60
2019-03-26T00:32:31.712Z,9.60
2019-03-26T00:33:36.557Z,9.30
2019-03-26T00:34:32.688Z,9.50
2019-03-26T00:35:31.715Z,9.00
2019-03-26T00:36:31.664Z,9.40
2019-03-26T00:37:31.663Z,9.40
2019-03-26T00:38:31.653Z,9.50
2019-03-26T00:39:31.743Z,9.70
2019-03-26T00:40:31.651Z,9.60
2019-03-26T00:41:31.613Z,10.00
2019-03-26T00:42:31.609Z,10.50
2019-03-26T00:43:31.590Z,10.10
2019-03-26T00:44:31.582Z,9.80
2019-03-26T00:45:31.571Z,10.00
2019-03-26T00:46:31.580Z,9.50
2019-03-26T00:47:31.554Z,9.10
2019-03-26T00:48:31.548Z,9.70
2019-03-26T00:49:31.529Z,9.90
2019-03-26T00:50:31.512Z,9.60
2019-03-26T00:51:31.526Z,9.60
2019-03-26T00:52:31.501Z,9.80
2019-03-26T00:53:31.500Z,10.10
2019-03-26T00:54:31.466Z,9.40
2019-03-26T00:55:31.472Z,9.30
2019-03-26T00:56:31.480Z,9.30
2019-03-26T00:57:31.442Z,9.90
2019-03-26T00:58:31.437Z,9.60
2019-03-26T00:59:31.412Z,9.90
2019-03-26T01:00:31.408Z,9.60
2019-03-26T01:01:31.408Z,10.20
2019-03-26T01:02:31.383Z,9.30
2019-03-26T01:03:31.372Z,9.40
2019-03-26T01:04:33.195Z,9.80
2019-03-26T01:05:31.346Z,9.30
2019-03-26T01:06:31.355Z,9.60
2019-03-26T01:07:31.333Z,9.80
2019-03-26T01:08:31.320Z,10.00
2019-03-26T01:09:31.320Z,9.00
2019-03-26T01:10:31.310Z,9.30
2019-03-26T01:11:31.321Z,9.50
2019-03-26T01:12:31.415Z,9.20
2019-03-26T01:13:31.261Z,9.10
2019-03-26T01:14:31.247Z,9.60
2019-03-26T01:15:31.250Z,9.10
2019-03-26T01:16:31.271Z,10.10
2019-03-26T01:17:31.219Z,9.80
2019-03-26T01:18:31.207Z,9.30
2019-03-26T01:19:31.199Z,9.80
2019-03-26T01:20:31.196Z,10.10
2019-03-26T01:21:31.209Z,9.40
2019-03-26T01:22:31.173Z,9.50
2019-03-26T01:23:31.159Z,9.40
2019-03-26T01:24:31.146Z,10.00
2019-03-26T01:25:31.132Z,9.50
2019-03-26T01:26:31.146Z,9.70
2019-03-26T01:27:31.122Z,10.20
2019-03-26T01:28:31.105Z,9.40
2019-03-26T01:29:31.086Z,9.20
2019-03-26T01:30:31.073Z,9.60
2019-03-26T01:31:31.080Z,9.70
2019-03-26T01:32:31.062Z,9.80
2019-03-26T01:33:31.045Z,10.00
2019-03-26T01:34:31.031Z,10.10
2019-03-26T01:35:31.020Z,10.20
2019-03-26T01:36:31.041Z,9.90
2019-03-26T01:37:31.068Z,10.00
2019-03-26T01:38:31.015Z,10.00
2019-03-26T01:39:31.008Z,9.40
2019-03-26T01:40:30.968Z,10.10
2019-03-26T01:41:30.963Z,9.90
2019-03-26T01:42:30.976Z,9.60
2019-03-26T01:44:32.171Z,9.90
2019-03-26T01:45:53.092Z,10.10
2019-03-26T01:46:51.914Z,9.40
2019-03-26T01:47:53.359Z,9.90
2019-03-26T01:48:30.871Z,9.90
2019-03-26T01:49:30.871Z,10.20
2019-03-26T01:51:32.004Z,10.90
2019-03-26T01:52:31.008Z,11.60
2019-03-26T01:53:30.990Z,11.10
2019-03-26T01:54:31.002Z,11.90
2019-03-26T01:55:30.975Z,11.10
2019-03-26T01:56:30.973Z,12.00
2019-03-26T01:57:30.802Z,11.80
2019-03-26T01:58:30.766Z,11.00
2019-03-26T01:59:30.754Z,11.80
2019-03-26T02:00:30.750Z,11.90
2019-03-26T02:01:30.745Z,11.60
2019-03-26T02:02:30.752Z,11.40
2019-03-26T02:03:30.712Z,11.50
2019-03-26T02:04:30.696Z,11.40
2019-03-26T02:05:30.688Z,11.70
2019-03-26T02:06:30.689Z,11.60
2019-03-26T02:07:30.695Z,11.50
2019-03-26T02:08:30.655Z,11.40
2019-03-26T02:09:30.649Z,11.20
2019-03-26T02:10:30.636Z,11.50
2019-03-26T02:11:30.626Z,11.40
2019-03-26T02:12:30.648Z,11.90
2019-03-26T02:13:30.606Z,11.60
2019-03-26T02:14:30.594Z,11.70
2019-03-26T02:15:30.581Z,11.20
2019-03-26T02:16:30.571Z,11.00
2019-03-26T02:17:30.586Z,10.60
2019-03-26T02:18:30.567Z,11.20
2019-03-26T02:19:30.576Z,11.20
2019-03-26T02:20:30.536Z,11.30
2019-03-26T02:21:30.518Z,11.60
2019-03-26T02:22:30.544Z,11.70
2019-03-26T02:23:30.526Z,11.00
2019-03-26T02:24:30.502Z,11.50
2019-03-26T02:25:30.479Z,11.60
2019-03-26T02:26:30.487Z,11.70
2019-03-26T02:27:30.482Z,11.60
2019-03-26T02:28:30.466Z,11.50
2019-03-26T02:29:30.447Z,10.70
2019-03-26T02:30:30.484Z,11.20
2019-03-26T02:31:30.427Z,11.00
2019-03-26T02:32:30.429Z,11.20
2019-03-26T02:33:30.386Z,10.50
2019-03-26T02:34:30.385Z,10.90
2019-03-26T02:35:30.374Z,11.10
2019-03-26T02:36:30.359Z,11.10
2019-03-26T02:37:30.359Z,11.10
2019-03-26T02:38:30.329Z,10.60
2019-03-26T02:39:30.323Z,10.90
2019-03-26T02:40:30.325Z,11.20
2019-03-26T02:41:30.315Z,11.70
2019-03-26T02:42:30.299Z,11.20
2019-03-26T02:43:30.273Z,12.10
2019-03-26T02:44:30.264Z,10.80
2019-03-26T02:45:30.261Z,11.10
2019-03-26T02:46:30.258Z,11.00
2019-03-26T02:47:30.260Z,11.10
2019-03-26T02:48:30.218Z,10.90
2019-03-26T02:49:30.212Z,10.70
2019-03-26T02:50:30.215Z,10.60
2019-03-26T02:51:30.188Z,10.30
2019-03-26T02:52:30.195Z,10.20
2019-03-26T02:53:30.174Z,9.30
2019-03-26T02:54:30.157Z,10.00
2019-03-26T02:55:30.144Z,9.90
2019-03-26T02:56:30.133Z,9.90
2019-03-26T02:57:30.141Z,10.60
2019-03-26T02:58:30.106Z,10.20
2019-03-26T02:59:30.125Z,10.50
2019-03-26T03:00:30.088Z,11.40
2019-03-26T03:01:30.078Z,10.30
2019-03-26T03:02:30.085Z,9.90
2019-03-26T03:03:30.070Z,9.50
2019-03-26T03:04:30.045Z,10.40
2019-03-26T03:05:35.646Z,10.20
2019-03-26T03:06:31.026Z,10.20
2019-03-26T03:07:30.032Z,10.70
2019-03-26T03:08:30.002Z,10.50
2019-03-26T03:09:29.994Z,9.90
2019-03-26T03:10:29.973Z,10.50
2019-03-26T03:11:29.969Z,9.50
2019-03-26T03:12:29.988Z,10.60
2019-03-26T03:13:29.960Z,10.00
2019-03-26T03:14:29.952Z,10.40
2019-03-26T03:15:29.923Z,10.20
2019-03-26T03:16:29.913Z,10.60
2019-03-26T03:17:29.934Z,9.90
2019-03-26T03:18:29.898Z,10.20
2019-03-26T03:19:29.884Z,9.70
2019-03-26T03:20:29.882Z,9.90
2019-03-26T03:21:29.863Z,10.20
2019-03-26T03:22:29.885Z,10.50
2019-03-26T03:23:29.838Z,10.40
2019-03-26T03:24:29.827Z,10.10
2019-03-26T03:25:29.822Z,9.70
2019-03-26T03:26:29.814Z,9.60
2019-03-26T03:27:29.802Z,9.70
2019-03-26T03:28:29.799Z,10.50
2019-03-26T03:29:29.776Z,10.00
2019-03-26T03:30:29.766Z,10.20
2019-03-26T03:31:29.751Z,10.30
2019-03-26T03:32:29.747Z,9.70
2019-03-26T03:33:29.777Z,9.80
2019-03-26T03:34:29.713Z,9.80
2019-03-26T03:35:29.702Z,10.50
2019-03-26T03:36:29.695Z,9.90
2019-03-26T03:37:29.685Z,9.30
2019-03-26T03:38:29.700Z,9.60
2019-03-26T03:39:29.663Z,9.20
2019-03-26T03:40:29.644Z,9.30
2019-03-26T03:41:29.653Z,9.10
2019-03-26T03:42:29.625Z,9.10
2019-03-26T03:43:29.635Z,9.90
2019-03-26T03:44:29.615Z,9.00
2019-03-26T03:45:29.599Z,9.00
2019-03-26T03:46:29.584Z,8.90
2019-03-26T03:47:29.579Z,8.40
2019-03-26T03:48:29.586Z,8.80
2019-03-26T03:49:29.567Z,9.20
2019-03-26T03:50:29.555Z,9.10
2019-03-26T03:51:29.540Z,8.40
2019-03-26T03:52:29.525Z,8.50
2019-03-26T03:53:29.539Z,8.60
2019-03-26T03:54:29.505Z,9.20
2019-03-26T03:55:29.506Z,8.70
2019-03-26T03:56:29.485Z,9.30
2019-03-26T03:57:29.488Z,9.00
2019-03-26T03:58:29.483Z,8.80
2019-03-26T03:59:29.446Z,8.10
2019-03-26T04:00:29.449Z,8.70
2019-03-26T04:01:29.452Z,8.40
2019-03-26T04:02:29.511Z,8.40
2019-03-26T04:03:29.419Z,8.00
2019-03-26T04:04:29.396Z,8.70
2019-03-26T04:05:29.374Z,8.50
2019-03-26T04:06:29.385Z,8.70
2019-03-26T04:07:29.353Z,8.90
2019-03-26T04:08:29.358Z,9.30
2019-03-26T04:09:29.333Z,9.00
2019-03-26T04:10:29.320Z,9.50
2019-03-26T04:11:29.308Z,9.00
2019-03-26T04:12:29.314Z,9.40
2019-03-26T04:13:29.332Z,9.00
2019-03-26T04:14:29.271Z,9.10
2019-03-26T04:15:29.273Z,8.80
2019-03-26T04:16:29.259Z,8.70
2019-03-26T04:17:29.248Z,9.10
2019-03-26T04:18:29.264Z,8.60
2019-03-26T04:19:29.223Z,8.30
2019-03-26T04:20:29.219Z,8.20
2019-03-26T04:21:29.197Z,8.60
2019-03-26T04:22:29.198Z,8.30
2019-03-26T04:23:29.185Z,9.20
2019-03-26T04:24:29.182Z,8.60
2019-03-26T04:25:29.165Z,8.60
2019-03-26T04:26:29.146Z,9.00
2019-03-26T04:27:29.134Z,8.50
2019-03-26T04:28:29.128Z,8.60
2019-03-26T04:29:29.138Z,8.80
2019-03-26T04:30:29.106Z,8.90
2019-03-26T04:31:29.087Z,9.30
2019-03-26T04:32:29.073Z,9.40
2019-03-26T04:33:29.068Z,9.30
2019-03-26T04:34:29.070Z,8.80
2019-03-26T04:35:29.043Z,9.20
2019-03-26T04:36:29.054Z,9.30
2019-03-26T04:37:29.021Z,9.50
2019-03-26T04:38:29.012Z,8.60
2019-03-26T04:39:29.040Z,9.20
2019-03-26T04:40:29.023Z,9.50
2019-03-26T04:41:28.991Z,9.10
2019-03-26T04:42:28.967Z,9.30
2019-03-26T04:43:28.957Z,9.20
2019-03-26T04:44:28.966Z,8.70
2019-03-26T04:45:28.934Z,9.10
2019-03-26T04:46:28.926Z,8.90
2019-03-26T04:47:28.911Z,9.20
2019-03-26T04:48:28.908Z,8.50
2019-03-26T04:49:28.914Z,8.50
2019-03-26T04:50:28.879Z,8.50
2019-03-26T04:51:28.872Z,9.10
2019-03-26T04:52:28.881Z,8.50
2019-03-26T04:53:28.860Z,9.20
2019-03-26T04:54:28.837Z,8.70
2019-03-26T04:55:28.848Z,8.60
2019-03-26T04:56:28.819Z,8.90
2019-03-26T04:57:28.800Z,8.80
2019-03-26T04:58:28.806Z,8.90
2019-03-26T04:59:28.778Z,9.20
2019-03-26T05:00:28.809Z,8.70
2019-03-26T05:01:28.768Z,9.10
2019-03-26T05:02:28.757Z,9.10
2019-03-26T05:03:28.750Z,9.30
2019-03-26T05:04:28.732Z,9.20
2019-03-26T05:05:28.835Z,8.90
2019-03-26T05:06:37.909Z,8.90
2019-03-26T05:07:29.697Z,9.10
2019-03-26T05:08:28.686Z,9.30
2019-03-26T05:09:28.681Z,8.70
2019-03-26T05:10:28.676Z,8.70
2019-03-26T05:11:28.650Z,8.60
2019-03-26T05:12:28.640Z,8.40
2019-03-26T05:13:28.640Z,8.80
2019-03-26T05:14:28.614Z,9.10
2019-03-26T05:15:28.633Z,8.60
2019-03-26T05:16:28.591Z,8.20
2019-03-26T05:17:28.585Z,9.20
2019-03-26T05:18:28.570Z,9.10
2019-03-26T05:19:28.559Z,9.10
2019-03-26T05:20:28.580Z,9.40
2019-03-26T05:21:28.544Z,10.10
2019-03-26T05:22:28.533Z,9.80
2019-03-26T05:23:28.525Z,10.30
2019-03-26T05:24:28.504Z,9.80
2019-03-26T05:25:28.514Z,10.50
2019-03-26T05:26:28.508Z,10.60
2019-03-26T05:27:28.512Z,10.90
2019-03-26T05:28:28.458Z,10.60
2019-03-26T05:29:28.450Z,11.40
2019-03-26T05:30:28.473Z,10.60
2019-03-26T05:31:28.439Z,10.90
2019-03-26T05:32:28.420Z,10.90
2019-03-26T05:33:28.406Z,10.30
2019-03-26T05:34:28.394Z,11.10
2019-03-26T05:35:28.416Z,10.50
2019-03-26T05:36:28.372Z,11.40
2019-03-26T05:37:28.368Z,11.10
2019-03-26T05:38:28.364Z,11.00
2019-03-26T05:39:28.366Z,12.00
2019-03-26T05:40:28.349Z,11.30
2019-03-26T05:41:28.326Z,11.90
2019-03-26T05:42:28.315Z,12.30
2019-03-26T05:43:28.303Z,11.60
2019-03-26T05:44:28.285Z,12.10
2019-03-26T05:45:28.280Z,12.20
2019-03-26T05:46:28.293Z,13.20
2019-03-26T05:47:28.256Z,12.60
2019-03-26T05:48:28.262Z,13.00
2019-03-26T05:49:28.236Z,12.90
2019-03-26T05:50:28.292Z,13.30
2019-03-26T05:51:28.232Z,13.10
2019-03-26T05:52:28.197Z,12.90
2019-03-26T05:53:28.194Z,12.50
2019-03-26T05:54:28.182Z,13.70
2019-03-26T05:55:28.163Z,13.20
2019-03-26T05:56:30.482Z,12.80
2019-03-26T05:57:28.151Z,13.70
2019-03-26T05:58:28.131Z,13.90
2019-03-26T05:59:28.126Z,13.60
2019-03-26T06:00:28.117Z,14.00
2019-03-26T06:01:28.121Z,14.00
2019-03-26T06:02:28.088Z,14.00
2019-03-26T06:03:28.078Z,14.60
2019-03-26T06:04:28.066Z,14.20
2019-03-26T06:05:28.073Z,14.60
2019-03-26T06:06:28.077Z,14.30
2019-03-26T06:07:31.167Z,15.10
2019-03-26T06:08:28.030Z,15.30
2019-03-26T06:09:28.010Z,15.30
2019-03-26T06:10:28.004Z,15.40
2019-03-26T06:11:28.016Z,15.00
2019-03-26T06:12:27.980Z,14.80
2019-03-26T06:13:27.968Z,15.10
2019-03-26T06:14:27.976Z,14.60
2019-03-26T06:15:30.028Z,13.80
2019-03-26T06:16:37.925Z,15.00
2019-03-26T06:18:29.108Z,14.50
2019-03-26T06:19:48.903Z,14.80
2019-03-26T06:20:27.890Z,15.00
2019-03-26T06:21:27.911Z,14.00
2019-03-26T06:22:48.889Z,14.00
2019-03-26T06:23:48.876Z,14.90
2019-03-26T06:24:48.850Z,14.20
2019-03-26T06:25:27.839Z,14.00
2019-03-26T06:26:27.820Z,13.90
2019-03-26T06:27:27.832Z,14.50
2019-03-26T06:28:27.832Z,14.60
2019-03-26T06:29:27.788Z,14.50
2019-03-26T06:30:27.789Z,13.90
2019-03-26T06:32:28.958Z,14.80
2019-03-26T06:33:27.936Z,14.30
2019-03-26T06:34:27.912Z,14.60
2019-03-26T06:35:27.915Z,14.30
2019-03-26T06:36:27.717Z,13.90
2019-03-26T06:37:27.731Z,13.70
2019-03-26T06:38:27.698Z,13.70
2019-03-26T06:40:28.853Z,13.90
2019-03-26T06:41:27.658Z,14.10
2019-03-26T06:42:27.674Z,13.70
2019-03-26T06:43:27.660Z,14.20
2019-03-26T06:44:27.643Z,13.80
2019-03-26T06:45:27.618Z,12.30
2019-03-26T06:46:27.644Z,13.60
2019-03-26T06:47:29.755Z,14.30
2019-03-26T06:48:27.590Z,12.70
2019-03-26T06:49:27.571Z,11.70
2019-03-26T06:50:27.562Z,11.80
2019-03-26T06:51:27.577Z,11.50
2019-03-26T06:52:27.586Z,11.40
2019-03-26T06:53:27.528Z,11.60
2019-03-26T06:54:27.520Z,11.70
2019-03-26T06:55:27.513Z,12.40
2019-03-26T06:56:27.508Z,11.00
2019-03-26T06:57:35.648Z,12.10
2019-03-26T06:59:28.638Z,11.00
2019-03-26T07:00:48.463Z,12.00
2019-03-26T07:01:27.447Z,11.30
2019-03-26T07:02:27.455Z,11.40
2019-03-26T07:03:48.425Z,10.80
2019-03-26T07:04:27.408Z,11.20
2019-03-26T07:05:27.401Z,11.10
2019-03-26T07:06:48.391Z,10.30
2019-03-26T07:07:31.793Z,11.50
2019-03-26T07:08:27.381Z,10.70
2019-03-26T07:09:48.483Z,11.00
2019-03-26T07:10:48.437Z,10.60
2019-03-26T07:11:27.329Z,11.00
2019-03-26T07:12:27.328Z,9.60
2019-03-26T07:14:28.475Z,10.40
2019-03-26T07:15:27.280Z,8.80
2019-03-26T07:16:27.281Z,9.10
2019-03-26T07:17:27.421Z,8.80
2019-03-26T07:18:27.276Z,9.00
2019-03-26T07:19:28.287Z,9.00
2019-03-26T07:20:27.250Z,8.70
2019-03-26T07:21:27.232Z,9.10
2019-03-26T07:22:27.216Z,8.50
2019-03-26T07:24:28.366Z,9.10
2019-03-26T07:25:27.430Z,8.20
2019-03-26T07:26:27.357Z,8.10
2019-03-26T07:27:27.339Z,7.70
2019-03-26T07:28:27.348Z,7.90
2019-03-26T07:29:27.140Z,7.00
2019-03-26T07:30:27.130Z,7.30
2019-03-26T07:31:29.138Z,7.40
2019-03-26T07:32:27.130Z,7.20
2019-03-26T07:33:27.115Z,7.70
2019-03-26T07:34:27.090Z,8.00
2019-03-26T07:35:27.070Z,7.60
2019-03-26T07:36:27.072Z,7.50
2019-03-26T07:37:27.060Z,7.30
2019-03-26T07:38:27.082Z,7.40
2019-03-26T07:39:27.039Z,6.90
2019-03-26T07:40:27.012Z,6.60
2019-03-26T07:41:27.015Z,7.40
2019-03-26T07:42:27.011Z,6.90
2019-03-26T07:43:27.002Z,7.20
2019-03-26T07:44:26.974Z,7.20
2019-03-26T07:46:27.963Z,7.40
2019-03-26T07:47:26.948Z,6.20
2019-03-26T07:48:26.955Z,7.30
2019-03-26T07:49:26.920Z,6.50
2019-03-26T07:50:26.902Z,5.80
2019-03-26T07:51:26.892Z,6.50
2019-03-26T07:52:26.886Z,6.20
2019-03-26T07:53:26.900Z,6.40
2019-03-26T07:54:26.867Z,6.40
2019-03-26T07:55:26.849Z,6.90
2019-03-26T07:56:26.841Z,7.00
2019-03-26T07:57:26.826Z,5.30
2019-03-26T07:58:26.831Z,6.10
2019-03-26T07:59:26.830Z,6.10
2019-03-26T08:00:26.798Z,6.20
2019-03-26T08:01:26.782Z,5.80
2019-03-26T08:03:27.957Z,5.00
2019-03-26T08:04:28.791Z,5.40
2019-03-26T08:05:29.945Z,6.00
2019-03-26T08:06:26.732Z,5.10
2019-03-26T08:07:26.724Z,5.20
2019-03-26T08:08:26.722Z,5.50
2019-03-26T08:09:26.799Z,5.50
2019-03-26T08:10:26.697Z,5.90
2019-03-26T08:11:26.716Z,5.60
2019-03-26T08:12:26.670Z,5.40
2019-03-26T08:13:26.747Z,5.60
2019-03-26T08:15:27.848Z,5.30
2019-03-26T08:16:26.635Z,5.30
2019-03-26T08:17:26.618Z,5.70
2019-03-26T08:18:26.597Z,5.20
2019-03-26T08:19:26.611Z,5.70
2019-03-26T08:21:27.744Z,5.20
2019-03-26T08:22:26.730Z,5.60
2019-03-26T08:23:26.716Z,5.90
2019-03-26T08:24:26.715Z,5.80
2019-03-26T08:25:26.679Z,5.50
2019-03-26T08:26:26.678Z,5.00
2019-03-26T08:27:26.514Z,5.10
2019-03-26T08:28:26.494Z,4.70
2019-03-26T08:29:26.516Z,4.90
2019-03-26T08:30:26.479Z,5.00
2019-03-26T08:31:26.463Z,5.80
2019-03-26T08:32:26.442Z,5.00
2019-03-26T08:33:26.489Z,4.90
2019-03-26T08:34:26.459Z,4.80
2019-03-26T08:35:26.411Z,5.00
2019-03-26T08:36:26.398Z,5.20
2019-03-26T08:37:26.393Z,5.30
2019-03-26T08:38:26.384Z,4.80
2019-03-26T08:39:26.441Z,5.40
2019-03-26T08:40:26.351Z,4.90
2019-03-26T08:41:26.346Z,5.40
2019-03-26T08:42:26.339Z,4.50
2019-03-26T08:43:26.326Z,4.70
2019-03-26T08:44:26.339Z,4.50
2019-03-26T08:45:26.314Z,4.40
2019-03-26T08:46:26.282Z,4.70
2019-03-26T08:47:26.281Z,4.10
2019-03-26T08:48:26.270Z,4.20
2019-03-26T08:49:30.703Z,4.30
2019-03-26T08:50:26.249Z,4.20
2019-03-26T08:51:26.235Z,4.00
2019-03-26T08:52:26.212Z,4.40
2019-03-26T08:53:26.214Z,4.00
2019-03-26T08:54:26.204Z,4.20
2019-03-26T08:55:26.208Z,4.50
2019-03-26T08:56:26.179Z,4.10
2019-03-26T08:57:26.176Z,3.60
2019-03-26T08:58:26.150Z,4.10
2019-03-26T08:59:26.143Z,4.00
2019-03-26T09:00:26.144Z,3.20
2019-03-26T09:01:26.119Z,3.90
2019-03-26T09:02:26.176Z,3.60
2019-03-26T09:03:26.099Z,4.10
2019-03-26T09:04:27.130Z,3.70
2019-03-26T09:05:26.089Z,3.50
2019-03-26T09:06:26.069Z,3.30
2019-03-26T09:07:26.053Z,3.40
2019-03-26T09:08:26.099Z,3.40
2019-03-26T09:09:26.028Z,3.50
2019-03-26T09:10:26.033Z,3.60
2019-03-26T09:11:26.004Z,3.80
2019-03-26T09:12:25.990Z,3.80
2019-03-26T09:13:25.975Z,4.10
2019-03-26T09:14:25.969Z,3.60
2019-03-26T09:15:25.973Z,3.80
2019-03-26T09:16:25.950Z,4.10
2019-03-26T09:17:25.944Z,4.30
2019-03-26T09:18:25.927Z,3.60
2019-03-26T09:19:25.918Z,3.50
2019-03-26T09:20:25.922Z,3.40
2019-03-26T09:21:25.890Z,3.90
2019-03-26T09:22:25.883Z,3.60
2019-03-26T09:23:25.873Z,3.70
2019-03-26T09:24:25.850Z,3.30
2019-03-26T09:25:25.869Z,3.40
2019-03-26T09:26:25.834Z,3.30
2019-03-26T09:27:25.817Z,3.50
2019-03-26T09:28:25.816Z,3.60
2019-03-26T09:29:25.839Z,3.90
2019-03-26T09:30:25.818Z,4.10
2019-03-26T09:31:25.790Z,3.40
2019-03-26T09:32:25.773Z,4.40
2019-03-26T09:33:25.763Z,4.00
2019-03-26T09:34:25.759Z,3.50
2019-03-26T09:35:25.761Z,4.00
2019-03-26T09:36:25.736Z,4.00
2019-03-26T09:37:25.711Z,3.40
2019-03-26T09:38:38.045Z,3.50
2019-03-26T09:39:26.693Z,4.10
2019-03-26T09:40:25.719Z,3.90
2019-03-26T09:41:25.683Z,3.80
2019-03-26T09:42:25.678Z,3.90
2019-03-26T09:43:25.656Z,3.60
2019-03-26T09:44:25.650Z,3.70
2019-03-26T09:45:25.674Z,3.50
2019-03-26T09:46:25.648Z,4.00
2019-03-26T09:47:25.627Z,3.80
2019-03-26T09:48:25.676Z,3.90
2019-03-26T09:49:25.583Z,3.00
2019-03-26T09:50:25.581Z,3.20
2019-03-26T09:51:25.597Z,3.20
2019-03-26T09:52:25.553Z,3.30
2019-03-26T09:53:25.590Z,3.20
2019-03-26T09:54:25.539Z,3.50
2019-03-26T09:55:25.518Z,3.40
2019-03-26T09:56:30.666Z,2.70
2019-03-26T09:57:26.496Z,2.70
2019-03-26T09:58:25.510Z,3.30
2019-03-26T09:59:25.476Z,3.00
2019-03-26T10:00:25.479Z,3.30
2019-03-26T10:01:25.472Z,2.80
2019-03-26T10:02:25.447Z,3.00
2019-03-26T10:03:25.464Z,2.80
2019-03-26T10:04:25.434Z,2.80
2019-03-26T10:05:25.409Z,3.20
2019-03-26T10:06:25.429Z,3.10
2019-03-26T10:07:25.389Z,2.90
2019-03-26T10:08:25.381Z,3.30
2019-03-26T10:09:25.357Z,2.80
2019-03-26T10:10:25.352Z,3.00
2019-03-26T10:11:25.349Z,3.20
2019-03-26T10:12:25.331Z,3.00
2019-03-26T10:13:25.327Z,2.90
2019-03-26T10:14:25.304Z,2.80
2019-03-26T10:15:25.288Z,3.10
2019-03-26T10:16:25.298Z,2.80
2019-03-26T10:17:25.280Z,2.90
2019-03-26T10:18:25.272Z,3.20
2019-03-26T10:19:25.251Z,3.70
2019-03-26T10:20:25.244Z,3.40
2019-03-26T10:21:25.241Z,3.20
2019-03-26T10:22:25.214Z,2.80
2019-03-26T10:23:25.205Z,3.70
2019-03-26T10:24:25.190Z,3.20
2019-03-26T10:25:25.196Z,3.00
2019-03-26T10:26:25.206Z,3.30
2019-03-26T10:27:25.162Z,3.80
2019-03-26T10:28:25.151Z,3.50
2019-03-26T10:29:30.442Z,3.30
2019-03-26T10:30:26.123Z,3.30
2019-03-26T10:31:25.262Z,3.30
2019-03-26T10:32:25.104Z,3.10
2019-03-26T10:33:25.110Z,2.90
2019-03-26T10:34:25.102Z,2.80
2019-03-26T10:35:25.080Z,2.80
2019-03-26T10:36:25.111Z,3.20
2019-03-26T10:37:25.092Z,2.80
2019-03-26T10:38:25.043Z,3.00
2019-03-26T10:39:25.030Z,3.00
2019-03-26T10:40:25.015Z,3.30
2019-03-26T10:41:25.013Z,3.20
2019-03-26T10:42:25.019Z,3.00
2019-03-26T10:43:24.982Z,3.30
2019-03-26T10:44:24.972Z,3.20
2019-03-26T10:45:24.977Z,3.20
2019-03-26T10:46:24.951Z,3.00
2019-03-26T10:47:24.961Z,3.30
2019-03-26T10:48:24.944Z,3.00
2019-03-26T10:49:24.941Z,3.30
2019-03-26T10:50:24.916Z,3.60
2019-03-26T10:51:24.897Z,3.20
2019-03-26T10:52:24.902Z,3.30
2019-03-26T10:53:24.886Z,2.90
2019-03-26T10:54:24.874Z,2.70
2019-03-26T10:55:24.851Z,3.30
2019-03-26T10:56:24.839Z,3.00
2019-03-26T10:57:24.927Z,3.00
2019-03-26T10:58:24.827Z,2.80
2019-03-26T10:59:24.818Z,2.60
2019-03-26T11:00:24.799Z,2.90
2019-03-26T11:01:24.791Z,3.10
2019-03-26T11:02:24.801Z,2.50
2019-03-26T11:03:24.765Z,2.90
2019-03-26T11:04:24.763Z,3.00
2019-03-26T11:05:24.742Z,3.10
2019-03-26T11:06:24.729Z,3.30
2019-03-26T11:07:24.755Z,3.00
2019-03-26T11:08:24.713Z,2.80
2019-03-26T11:09:27.201Z,3.10
2019-03-26T11:10:24.705Z,2.70
2019-03-26T11:11:24.696Z,2.60
2019-03-26T11:12:24.723Z,3.20
2019-03-26T11:13:24.655Z,3.30
2019-03-26T11:14:24.654Z,3.40
2019-03-26T11:15:24.643Z,3.20
2019-03-26T11:16:24.690Z,3.40
2019-03-26T11:17:24.660Z,3.30
2019-03-26T11:18:24.593Z,3.10
2019-03-26T11:19:24.584Z,3.30
2019-03-26T11:20:24.582Z,3.50
2019-03-26T11:21:24.582Z,3.50
2019-03-26T11:22:24.587Z,3.60
2019-03-26T11:23:24.543Z,3.50
2019-03-26T11:24:24.522Z,3.20
2019-03-26T11:25:24.519Z,3.10
2019-03-26T11:26:24.515Z,3.40
2019-03-26T11:27:24.540Z,3.00
2019-03-26T11:28:24.493Z,2.90
2019-03-26T11:29:24.476Z,3.40
2019-03-26T11:30:24.477Z,3.40
2019-03-26T11:31:24.459Z,3.60
2019-03-26T11:32:24.518Z,3.10
2019-03-26T11:33:24.463Z,3.30
2019-03-26T11:34:24.418Z,3.60
2019-03-26T11:35:24.406Z,3.20
2019-03-26T11:36:24.397Z,3.30
2019-03-26T11:37:24.394Z,3.60
2019-03-26T11:38:24.412Z,3.40
2019-03-26T11:39:32.554Z,3.10
2019-03-26T11:40:25.357Z,3.10
2019-03-26T11:41:24.345Z,3.50
2019-03-26T11:42:24.333Z,3.00
2019-03-26T11:43:24.340Z,3.20
2019-03-26T11:44:24.325Z,2.90
2019-03-26T11:45:24.298Z,3.30
2019-03-26T11:46:24.284Z,3.00
2019-03-26T11:47:24.283Z,3.30
2019-03-26T11:48:24.301Z,2.90
2019-03-26T11:49:24.260Z,3.20
2019-03-26T11:50:24.240Z,2.90
2019-03-26T11:51:24.229Z,3.00
2019-03-26T11:52:24.215Z,2.60
2019-03-26T11:53:24.234Z,2.90
2019-03-26T11:54:24.196Z,3.10
2019-03-26T11:55:24.200Z,3.30
2019-03-26T11:56:24.172Z,2.60
2019-03-26T11:57:24.173Z,2.80
2019-03-26T11:58:30.267Z,2.90
2019-03-26T11:59:25.164Z,2.80
2019-03-26T12:00:24.143Z,2.90
2019-03-26T12:01:24.118Z,3.20
2019-03-26T12:02:24.137Z,3.20
2019-03-26T12:03:24.109Z,2.90
2019-03-26T12:04:24.091Z,3.10
2019-03-26T12:05:24.082Z,3.20
2019-03-26T12:06:24.074Z,3.10
2019-03-26T12:07:24.056Z,3.50
2019-03-26T12:08:24.084Z,3.60
2019-03-26T12:09:24.047Z,3.80
2019-03-26T12:10:24.030Z,3.60
2019-03-26T12:11:24.018Z,3.90
2019-03-26T12:12:24.006Z,3.70
2019-03-26T12:13:24.024Z,3.80
2019-03-26T12:14:23.977Z,4.30
2019-03-26T12:15:23.967Z,3.80
2019-03-26T12:16:23.952Z,4.20
2019-03-26T12:17:23.956Z,4.10
2019-03-26T12:18:23.962Z,4.40
2019-03-26T12:19:23.923Z,4.00
2019-03-26T12:20:23.912Z,3.90
2019-03-26T12:21:23.909Z,4.60
2019-03-26T12:22:23.890Z,4.50
2019-03-26T12:23:23.905Z,5.00
2019-03-26T12:24:23.882Z,4.80
2019-03-26T12:25:23.851Z,4.40
2019-03-26T12:26:23.841Z,4.50
2019-03-26T12:27:23.833Z,4.80
2019-03-26T12:28:23.830Z,4.90
2019-03-26T12:29:23.839Z,4.70
2019-03-26T12:30:23.808Z,5.60
2019-03-26T12:31:23.786Z,5.10
2019-03-26T12:32:23.781Z,5.10
2019-03-26T12:33:23.773Z,5.10
2019-03-26T12:34:23.767Z,5.40
2019-03-26T12:35:23.762Z,5.20
2019-03-26T12:36:23.735Z,5.60
2019-03-26T12:37:23.715Z,4.80
2019-03-26T12:38:23.713Z,5.00
2019-03-26T12:39:23.731Z,5.30
2019-03-26T12:40:23.705Z,5.50
2019-03-26T12:41:23.684Z,5.60
2019-03-26T12:42:23.778Z,5.00
2019-03-26T12:43:23.661Z,4.90
2019-03-26T12:44:23.666Z,4.80
2019-03-26T12:45:23.657Z,5.10
2019-03-26T12:46:23.692Z,4.20
2019-03-26T12:47:23.615Z,4.70
2019-03-26T12:48:23.604Z,4.30
2019-03-26T12:49:23.617Z,4.10
2019-03-26T12:50:23.579Z,4.60
2019-03-26T12:51:23.583Z,3.90
2019-03-26T12:52:23.553Z,3.80
2019-03-26T12:53:23.556Z,3.90
2019-03-26T12:54:23.558Z,4.10
2019-03-26T12:55:23.532Z,3.90
2019-03-26T12:56:23.512Z,3.70
2019-03-26T12:57:23.530Z,3.70
2019-03-26T12:58:31.561Z,3.50
2019-03-26T12:59:26.699Z,3.20
2019-03-26T13:00:23.469Z,3.70
2019-03-26T13:01:23.456Z,3.30
2019-03-26T13:02:23.458Z,2.90
2019-03-26T13:03:23.433Z,2.90
2019-03-26T13:04:23.450Z,3.00
2019-03-26T13:05:23.424Z,2.80
2019-03-26T13:06:23.394Z,3.00
2019-03-26T13:07:23.421Z,3.20
2019-03-26T13:08:23.405Z,3.00
2019-03-26T13:09:23.413Z,3.40
2019-03-26T13:10:23.355Z,3.40
2019-03-26T13:11:23.348Z,3.20
2019-03-26T13:12:23.343Z,3.30
2019-03-26T13:13:23.331Z,3.80
2019-03-26T13:14:23.341Z,3.80
2019-03-26T13:15:23.346Z,2.90
2019-03-26T13:16:23.283Z,3.40
2019-03-26T13:17:23.279Z,3.10
2019-03-26T13:18:23.261Z,2.70
2019-03-26T13:19:24.521Z,2.80
2019-03-26T13:20:23.240Z,3.00
2019-03-26T13:21:23.234Z,2.60
2019-03-26T13:22:23.217Z,2.50
2019-03-26T13:23:23.221Z,2.70